Time;durP1;ratioP1;P1;durP2;ratioP2;P2;SDS_P1;SDS_P2;PMS_P1;PMS_P2;Temp;Humidity;BMP_temperature;BMP_pressure;BME280_temperature;BME280_humidity;BME280_pressure;Samples;Min_cycle;Max_cycle;Signal;HPM_P1;HPM_P2
2022/02/17 00:01:08;;;;;;;0.40;0.40;;;12.40;1.00;;;;;;5043986;28;20490;-78
2022/02/17 00:03:37;;;;;;;0.40;0.40;;;12.40;1.00;;;;;;5035534;28;21212;-78
2022/02/17 00:06:05;;;;;;;0.40;0.40;;;12.30;99.90;;;;;;5039755;28;20454;-78
2022/02/17 00:08:33;;;;;;;0.30;0.30;;;12.30;99.90;;;;;;5043081;28;20525;-77
2022/02/17 00:11:03;;;;;;;0.53;0.40;;;12.50;1.00;;;;;;5039196;28;20499;-77
2022/02/17 00:13:31;;;;;;;0.33;0.33;;;12.40;1.00;;;;;;5040540;28;20465;-78
2022/02/17 00:16:00;;;;;;;0.30;0.30;;;12.40;99.90;;;;;;5039384;28;20461;-77
2022/02/17 00:18:28;;;;;;;0.40;0.40;;;12.20;99.90;;;;;;5041532;28;20510;-78
2022/02/17 00:20:56;;;;;;;0.40;0.40;;;12.30;1.00;;;;;;5040369;28;20568;-78
2022/02/17 00:23:25;;;;;;;0.40;0.40;;;12.30;99.90;;;;;;5040697;28;20492;-79
2022/02/17 00:25:54;;;;;;;0.37;0.37;;;12.20;1.00;;;;;;5043081;28;20460;-78
2022/02/17 00:28:23;;;;;;;0.40;0.40;;;12.30;99.90;;;;;;5044035;28;20465;-78
2022/02/17 00:30:52;;;;;;;0.40;0.40;;;12.10;99.90;;;;;;5044118;28;20475;-78
2022/02/17 00:33:20;;;;;;;0.40;0.40;;;12.10;99.90;;;;;;5045385;28;20508;-78
2022/02/17 00:35:48;;;;;;;0.30;0.30;;;12.20;1.00;;;;;;5044626;28;20548;-78
2022/02/17 00:38:16;;;;;;;0.40;0.40;;;12.30;99.90;;;;;;5035408;28;20456;-78
2022/02/17 00:40:45;;;;;;;0.40;0.40;;;12.20;1.00;;;;;;5043137;28;20492;-78
2022/02/17 00:43:13;;;;;;;0.37;0.37;;;12.30;99.90;;;;;;5042994;28;20801;-78
2022/02/17 00:45:42;;;;;;;0.40;0.40;;;12.30;1.00;;;;;;5042569;28;20462;-78
2022/02/17 00:48:11;;;;;;;0.67;0.40;;;12.50;99.90;;;;;;5038022;28;20492;-78
2022/02/17 00:50:39;;;;;;;0.30;0.30;;;12.30;99.90;;;;;;5042003;28;20472;-78
2022/02/17 00:53:08;;;;;;;0.40;0.40;;;12.20;1.00;;;;;;5041586;28;20537;-78
2022/02/17 00:55:36;;;;;;;0.30;0.30;;;12.20;1.00;;;;;;5038828;28;20498;-78
2022/02/17 00:58:04;;;;;;;0.40;0.40;;;12.20;99.90;;;;;;5038968;28;20461;-78
2022/02/17 01:00:33;;;;;;;0.40;0.40;;;12.30;99.90;;;;;;5041021;28;20475;-78
2022/02/17 01:03:03;;;;;;;0.50;0.40;;;12.30;99.90;;;;;;5040169;28;20472;-79
2022/02/17 01:05:34;;;;;;;0.30;0.30;;;12.30;99.90;;;;;;5044278;28;20459;-78
2022/02/17 01:08:02;;;;;;;0.30;0.30;;;12.20;1.00;;;;;;5039296;28;20961;-78
2022/02/17 01:10:31;;;;;;;0.30;0.30;;;12.40;1.00;;;;;;5042471;28;21144;-78
2022/02/17 01:12:59;;;;;;;0.30;0.30;;;12.30;82.30;;;;;;5041007;28;20448;-77
2022/02/17 01:15:30;;;;;;;0.40;0.40;;;12.30;1.00;;;;;;5043341;28;20493;-78
2022/02/17 01:17:58;;;;;;;0.30;0.30;;;12.30;1.00;;;;;;5040378;28;20481;-78
2022/02/17 01:20:28;;;;;;;0.93;0.93;;;12.20;50.70;;;;;;5042554;28;20505;-77
2022/02/17 01:22:56;;;;;;;0.40;0.40;;;12.20;99.90;;;;;;5043156;28;20488;-77
2022/02/17 01:25:24;;;;;;;0.40;0.40;;;12.10;99.90;;;;;;5042281;28;20521;-78
2022/02/17 01:27:53;;;;;;;0.40;0.40;;;12.30;1.00;;;;;;5036769;28;20453;-78
2022/02/17 01:30:22;;;;;;;0.40;0.40;;;12.20;1.00;;;;;;5041110;28;20479;-78
2022/02/17 01:32:50;;;;;;;0.33;0.33;;;12.20;22.70;;;;;;5040788;28;20904;-78
2022/02/17 01:35:18;;;;;;;0.30;0.30;;;12.20;99.90;;;;;;5040876;28;20612;-77
2022/02/17 01:37:48;;;;;;;0.30;0.30;;;12.20;1.00;;;;;;5036882;28;20450;-78
2022/02/17 01:40:16;;;;;;;3.60;0.40;;;12.30;1.00;;;;;;5034781;28;20450;-78
2022/02/17 01:42:46;;;;;;;0.30;0.30;;;12.20;44.30;;;;;;5043255;28;20479;-78
2022/02/17 01:45:15;;;;;;;0.30;0.30;;;12.20;99.90;;;;;;5041980;28;20469;-79
2022/02/17 01:47:44;;;;;;;0.30;0.30;;;12.20;99.90;;;;;;5046263;28;20464;-78
2022/02/17 01:50:13;;;;;;;0.37;0.37;;;12.20;99.90;;;;;;5037236;28;20448;-77
2022/02/17 01:52:41;;;;;;;0.30;0.30;;;12.30;1.00;;;;;;5039412;28;20466;-77
2022/02/17 01:55:11;;;;;;;0.40;0.40;;;12.20;1.00;;;;;;5035935;28;20456;-77
2022/02/17 01:57:41;;;;;;;0.30;0.30;;;12.30;1.00;;;;;;5041574;28;20662;-78
2022/02/17 02:00:11;;;;;;;0.40;0.40;;;12.30;1.00;;;;;;5040065;28;20456;-78
2022/02/17 02:02:43;;;;;;;0.40;0.40;;;12.20;99.90;;;;;;5043463;28;20465;-78
2022/02/17 02:05:12;;;;;;;0.40;0.40;;;12.20;99.90;;;;;;5040908;28;20459;-77
2022/02/17 02:07:42;;;;;;;0.30;0.30;;;12.30;99.90;;;;;;5037781;28;20541;-78
2022/02/17 02:10:12;;;;;;;0.30;0.30;;;12.30;99.90;;;;;;5040494;28;20533;-77
2022/02/17 02:12:40;;;;;;;0.30;0.30;;;12.30;99.90;;;;;;5039401;28;21329;-78
2022/02/17 02:15:09;;;;;;;0.40;0.40;;;12.40;6.30;;;;;;5042212;28;20459;-78
2022/02/17 02:17:38;;;;;;;0.50;0.30;;;12.30;32.20;;;;;;5041797;28;20467;-77
2022/02/17 02:20:08;;;;;;;0.43;0.37;;;12.30;99.90;;;;;;5041923;28;20447;-77
2022/02/17 02:22:37;;;;;;;0.30;0.30;;;12.30;31.20;;;;;;5040135;28;21326;-77
2022/02/17 02:25:06;;;;;;;0.30;0.30;;;12.20;99.90;;;;;;5042657;28;20459;-77
2022/02/17 02:27:35;;;;;;;0.37;0.37;;;12.30;99.90;;;;;;5036719;28;20449;-77
2022/02/17 02:30:05;;;;;;;0.30;0.30;;;12.20;99.90;;;;;;5040804;28;20511;-77
2022/02/17 02:32:34;;;;;;;0.40;0.40;;;12.30;99.90;;;;;;5035282;28;20519;-77
2022/02/17 02:35:02;;;;;;;0.60;0.40;;;12.30;99.90;;;;;;5043381;28;20542;-78
2022/02/17 02:37:30;;;;;;;0.50;0.40;;;12.30;99.90;;;;;;5037764;28;20466;-77
2022/02/17 02:40:00;;;;;;;0.50;0.50;;;12.40;99.90;;;;;;5040745;28;20460;-78
2022/02/17 02:42:28;;;;;;;0.53;0.47;;;12.40;99.90;;;;;;5038384;28;21013;-77
2022/02/17 02:44:56;;;;;;;0.70;0.30;;;12.30;99.90;;;;;;5037154;28;20456;-77
2022/02/17 02:47:25;;;;;;;1.80;0.30;;;12.20;1.00;;;;;;5041594;28;20458;-77
2022/02/17 02:49:53;;;;;;;0.40;0.40;;;12.10;1.00;;;;;;5040060;28;20459;-77
2022/02/17 02:52:21;;;;;;;0.40;0.40;;;12.10;1.00;;;;;;5041074;28;20480;-77
2022/02/17 02:54:49;;;;;;;0.30;0.30;;;12.00;1.00;;;;;;5042752;28;20493;-77
2022/02/17 02:57:19;;;;;;;1.17;0.30;;;12.00;1.00;;;;;;5038203;28;20971;-77
2022/02/17 02:59:47;;;;;;;0.37;0.37;;;12.00;1.00;;;;;;5040278;28;20453;-79
2022/02/17 03:02:15;;;;;;;0.30;0.30;;;12.00;1.00;;;;;;5035484;28;21404;-77
2022/02/17 03:04:43;;;;;;;0.30;0.30;;;12.00;1.00;;;;;;5038939;28;20502;-77
2022/02/17 03:07:11;;;;;;;0.30;0.30;;;11.90;1.00;;;;;;5040668;28;20951;-78
2022/02/17 03:09:39;;;;;;;0.40;0.40;;;11.90;1.00;;;;;;5044637;28;20456;-78
2022/02/17 03:12:08;;;;;;;0.30;0.30;;;11.90;1.00;;;;;;5046932;28;20478;-77
2022/02/17 03:14:40;;;;;;;0.30;0.30;;;12.00;1.00;;;;;;5045296;28;20456;-77
2022/02/17 03:17:08;;;;;;;0.40;0.40;;;12.00;1.00;;;;;;5040541;28;20462;-77
2022/02/17 03:19:36;;;;;;;0.30;0.30;;;11.90;1.00;;;;;;5040839;28;20490;-77
2022/02/17 03:22:05;;;;;;;0.30;0.30;;;12.00;1.00;;;;;;5044362;28;20467;-77
2022/02/17 03:24:33;;;;;;;0.30;0.30;;;12.10;1.00;;;;;;5044248;28;20476;-77
2022/02/17 03:27:01;;;;;;;0.93;0.30;;;12.00;1.00;;;;;;5045452;28;20542;-77
2022/02/17 03:29:29;;;;;;;0.30;0.30;;;12.00;1.00;;;;;;5042667;28;20459;-77
2022/02/17 03:31:59;;;;;;;0.40;0.40;;;12.10;1.00;;;;;;5044278;28;20496;-77
2022/02/17 03:34:27;;;;;;;0.37;0.30;;;12.00;1.00;;;;;;5041590;28;20540;-77
2022/02/17 03:36:56;;;;;;;0.30;0.30;;;12.00;1.00;;;;;;5042749;28;20798;-77
2022/02/17 03:39:24;;;;;;;0.30;0.30;;;12.00;1.00;;;;;;5044181;28;20467;-77
2022/02/17 03:41:52;;;;;;;0.40;0.40;;;12.00;1.00;;;;;;5045540;28;20947;-77
2022/02/17 03:44:23;;;;;;;2.00;0.40;;;11.90;1.00;;;;;;5039556;28;20486;-77
2022/02/17 03:46:51;;;;;;;0.70;0.40;;;11.90;1.00;;;;;;5044904;28;20815;-77
2022/02/17 03:49:21;;;;;;;0.30;0.30;;;12.10;1.00;;;;;;5043377;28;20517;-77
2022/02/17 03:51:49;;;;;;;0.40;0.40;;;12.10;1.00;;;;;;5043868;28;20876;-77
2022/02/17 03:54:18;;;;;;;0.80;0.30;;;12.00;1.00;;;;;;5044389;28;20464;-76
2022/02/17 03:56:46;;;;;;;0.30;0.30;;;12.00;1.00;;;;;;5043203;28;20459;-78
2022/02/17 03:59:14;;;;;;;0.30;0.30;;;11.90;1.00;;;;;;5044914;28;21047;-78
2022/02/17 04:01:43;;;;;;;2.47;0.40;;;12.10;1.00;;;;;;5044333;28;20480;-78
2022/02/17 04:04:13;;;;;;;0.60;0.50;;;12.00;1.00;;;;;;5044430;28;21147;-77
2022/02/17 04:06:43;;;;;;;2.53;0.70;;;11.90;1.00;;;;;;5045188;28;20540;-78
2022/02/17 04:09:11;;;;;;;0.60;0.50;;;11.90;1.00;;;;;;5039726;28;20491;-78
2022/02/17 04:11:40;;;;;;;0.40;0.40;;;11.80;1.00;;;;;;5042265;28;20479;-78
2022/02/17 04:14:08;;;;;;;1.73;0.50;;;11.70;1.00;;;;;;5046116;28;21284;-78
2022/02/17 04:16:36;;;;;;;0.40;0.37;;;11.80;1.00;;;;;;5043335;28;20476;-78
2022/02/17 04:19:05;;;;;;;0.50;0.50;;;11.90;1.00;;;;;;5044743;28;20480;-78
2022/02/17 04:21:33;;;;;;;0.37;0.37;;;12.00;1.00;;;;;;5042548;28;21068;-77
2022/02/17 04:24:05;;;;;;;0.40;0.40;;;12.00;1.00;;;;;;5043032;28;20483;-78
2022/02/17 04:26:33;;;;;;;0.43;0.37;;;12.00;1.00;;;;;;5041382;28;20452;-78
2022/02/17 04:29:01;;;;;;;0.40;0.40;;;12.20;1.00;;;;;;5041455;28;20499;-79
2022/02/17 04:31:29;;;;;;;0.30;0.30;;;12.20;1.00;;;;;;5048989;28;20558;-78
2022/02/17 04:33:58;;;;;;;0.60;0.30;;;12.20;1.00;;;;;;5044008;28;20483;-78
2022/02/17 04:36:26;;;;;;;0.30;0.30;;;12.30;1.00;;;;;;5043377;28;20461;-78
2022/02/17 04:38:54;;;;;;;0.40;0.40;;;12.30;1.00;;;;;;5041886;28;20481;-78
2022/02/17 04:44:10;;;;;;;0.43;0.43;;;12.40;99.90;;;;;;5041184;28;21015;-78
2022/02/17 04:46:38;;;;;;;0.30;0.30;;;12.40;99.90;;;;;;5042262;28;20449;-78
2022/02/17 04:49:07;;;;;;;0.30;0.30;;;12.30;99.90;;;;;;5040444;28;20479;-79
2022/02/17 04:51:35;;;;;;;0.30;0.30;;;12.20;1.00;;;;;;5042780;28;20465;-78
2022/02/17 04:54:04;;;;;;;0.30;0.30;;;12.20;99.90;;;;;;5041825;28;20452;-78
2022/02/17 04:56:34;;;;;;;0.30;0.30;;;12.40;99.90;;;;;;5041765;28;20475;-78
2022/02/17 04:59:03;;;;;;;0.40;0.40;;;12.40;99.90;;;;;;5041750;28;21062;-78
2022/02/17 05:01:31;;;;;;;0.40;0.40;;;12.40;99.90;;;;;;5034482;28;20563;-78
2022/02/17 05:03:59;;;;;;;0.33;0.30;;;12.60;1.00;;;;;;5040735;28;20574;-79
2022/02/17 05:06:27;;;;;;;0.40;0.40;;;12.60;99.90;;;;;;5037384;28;20451;-78
2022/02/17 05:08:55;;;;;;;0.30;0.30;;;12.50;99.90;;;;;;5038246;28;21116;-79
2022/02/17 05:11:24;;;;;;;1.03;0.30;;;12.40;1.00;;;;;;5038997;28;20472;-79
2022/02/17 05:13:53;;;;;;;0.30;0.30;;;12.50;1.00;;;;;;5041268;28;20457;-75
2022/02/17 05:16:21;;;;;;;0.30;0.30;;;12.60;99.90;;;;;;5032359;28;20464;-79
2022/02/17 05:18:50;;;;;;;0.70;0.50;;;12.70;1.00;;;;;;5040506;28;20487;-78
2022/02/17 05:21:18;;;;;;;0.30;0.30;;;12.70;99.90;;;;;;5043271;28;20622;-78
2022/02/17 05:23:46;;;;;;;0.50;0.33;;;12.80;99.90;;;;;;5040576;28;20465;-79
2022/02/17 05:26:15;;;;;;;0.40;0.40;;;12.80;99.90;;;;;;5043659;28;20657;-78
2022/02/17 05:28:44;;;;;;;0.40;0.40;;;12.90;1.00;;;;;;5040891;28;20480;-79
2022/02/17 05:31:13;;;;;;;0.83;0.30;;;12.90;99.90;;;;;;5039754;28;20567;-79
2022/02/17 05:33:42;;;;;;;0.30;0.30;;;12.90;99.90;;;;;;5033193;28;21416;-79
2022/02/17 05:36:10;;;;;;;0.40;0.40;;;12.80;99.90;;;;;;5042614;28;20537;-79
2022/02/17 05:38:38;;;;;;;0.60;0.60;;;12.90;99.90;;;;;;5035690;28;20460;-79
2022/02/17 05:41:06;;;;;;;1.43;0.50;;;12.90;1.00;;;;;;5038783;28;20792;-78
2022/02/17 05:43:35;;;;;;;0.63;0.40;;;13.00;99.90;;;;;;5038504;28;20476;-78
2022/02/17 05:46:04;;;;;;;0.60;0.40;;;12.90;99.90;;;;;;5052798;28;22196;-78
2022/02/17 05:48:37;;;;;;;0.40;0.40;;;12.90;3.10;;;;;;5039639;28;20557;-78
2022/02/17 05:51:05;;;;;;;0.30;0.30;;;13.00;1.00;;;;;;5038076;28;20550;-78
2022/02/17 05:53:34;;;;;;;0.40;0.30;;;13.10;99.90;;;;;;5038812;28;20469;-78
2022/02/17 05:56:02;;;;;;;0.53;0.53;;;12.90;99.90;;;;;;5036736;28;20533;-79
2022/02/17 05:58:30;;;;;;;0.70;0.70;;;12.90;99.90;;;;;;5040080;28;20451;-78
2022/02/17 06:00:58;;;;;;;0.60;0.60;;;12.90;99.90;;;;;;5040171;28;20471;-79
2022/02/17 06:03:26;;;;;;;0.40;0.40;;;12.80;1.00;;;;;;5038624;28;20454;-78
2022/02/17 06:05:56;;;;;;;0.40;0.40;;;12.80;30.30;;;;;;5038324;28;20468;-78
2022/02/17 06:08:25;;;;;;;0.40;0.40;;;12.80;1.00;;;;;;5039084;28;20462;-78
2022/02/17 06:10:53;;;;;;;0.40;0.40;;;12.80;35.60;;;;;;5040517;28;20560;-78
2022/02/17 06:13:21;;;;;;;0.40;0.40;;;12.90;82.00;;;;;;5039605;28;20519;-78
2022/02/17 06:15:49;;;;;;;1.00;0.90;;;12.80;99.90;;;;;;5036429;28;20448;-78
2022/02/17 06:18:18;;;;;;;0.53;0.40;;;12.90;99.90;;;;;;5056324;28;20584;-78
2022/02/17 06:20:49;;;;;;;0.40;0.40;;;12.90;1.00;;;;;;5035321;28;20889;-78
2022/02/17 06:23:18;;;;;;;0.80;0.40;;;12.90;1.00;;;;;;5044867;28;20440;-77
2022/02/17 06:25:47;;;;;;;1.37;1.23;;;12.90;99.90;;;;;;5038702;28;20222;-78
2022/02/17 06:28:15;;;;;;;0.50;0.50;;;12.90;1.00;;;;;;5034554;28;20466;-78
2022/02/17 06:30:45;;;;;;;0.87;0.60;;;12.80;1.00;;;;;;5034830;28;20477;-78
2022/02/17 06:33:13;;;;;;;2.83;0.70;;;12.70;67.00;;;;;;5039490;28;20461;-77
2022/02/17 06:35:42;;;;;;;0.67;0.50;;;12.60;99.90;;;;;;5040730;28;20473;-76
2022/02/17 06:38:10;;;;;;;3.90;0.70;;;12.50;1.00;;;;;;5043542;28;20894;-77
2022/02/17 06:40:40;;;;;;;0.67;0.57;;;12.50;1.00;;;;;;5039208;28;21051;-77
2022/02/17 06:43:11;;;;;;;3.00;0.80;;;12.40;1.00;;;;;;5048434;28;20455;-77
2022/02/17 06:45:41;;;;;;;1.20;0.50;;;12.30;1.00;;;;;;5050581;28;20523;-77
2022/02/17 06:48:10;;;;;;;0.90;0.50;;;12.40;1.00;;;;;;5049380;28;21212;-77
2022/02/17 06:50:38;;;;;;;1.40;0.80;;;12.40;1.00;;;;;;5043258;28;21027;-77
2022/02/17 06:53:07;;;;;;;1.73;0.80;;;12.40;1.00;;;;;;5044568;28;20455;-77
2022/02/17 06:55:35;;;;;;;0.70;0.70;;;12.40;1.00;;;;;;5051106;28;20446;-77
2022/02/17 06:58:06;;;;;;;3.27;0.73;;;12.40;1.00;;;;;;5043430;28;22606;-78
2022/02/17 07:00:35;;;;;;;2.63;0.70;;;12.50;1.00;;;;;;5042638;28;20471;-77
2022/02/17 07:03:06;;;;;;;2.47;0.90;;;12.50;1.00;;;;;;5050920;28;20478;-77
2022/02/17 07:05:36;;;;;;;3.40;0.67;;;12.40;1.00;;;;;;5043489;28;20489;-78
2022/02/17 07:08:05;;;;;;;0.70;0.70;;;12.50;1.00;;;;;;5045513;28;20931;-77
2022/02/17 07:13:21;;;;;;;0.87;0.60;;;12.40;58.70;;;;;;5041675;28;20514;-77
2022/02/17 07:15:50;;;;;;;0.70;0.70;;;12.50;99.90;;;;;;5045267;28;20448;-77
2022/02/17 07:18:24;;;;;;;0.73;0.67;;;12.50;99.90;;;;;;5046444;28;20459;-77
2022/02/17 07:20:54;;;;;;;0.67;0.50;;;12.40;99.90;;;;;;5039485;28;20562;-77
2022/02/17 07:23:25;;;;;;;1.60;0.50;;;12.40;99.90;;;;;;5039481;28;20441;-78
2022/02/17 07:25:54;;;;;;;2.40;1.57;;;12.30;70.60;;;;;;5040505;28;20530;-77
2022/02/17 07:28:26;;;;;;;2.03;0.53;;;12.30;1.00;;;;;;5044953;28;20858;-77
2022/02/17 07:30:55;;;;;;;1.30;0.70;;;12.40;1.00;;;;;;5040859;28;20464;-77
2022/02/17 07:33:24;;;;;;;1.90;0.63;;;12.40;99.90;;;;;;5045558;28;20493;-77
2022/02/17 07:35:52;;;;;;;2.40;0.70;;;12.40;99.90;;;;;;5044406;28;20444;-77
2022/02/17 07:38:41;;;;;;;2.77;1.00;;;12.40;99.90;;;;;;5039646;28;20454;-77
2022/02/17 07:41:10;;;;;;;0.67;0.60;;;12.40;99.90;;;;;;5042053;28;20835;-77
2022/02/17 07:43:40;;;;;;;3.03;0.60;;;12.40;99.90;;;;;;5041779;28;20550;-78
2022/02/17 07:46:08;;;;;;;1.10;0.83;;;12.50;6.10;;;;;;5044221;28;20486;-77
2022/02/17 07:48:37;;;;;;;0.60;0.50;;;12.50;1.00;;;;;;5044569;28;20549;-78
2022/02/17 07:51:06;;;;;;;1.50;0.60;;;12.50;1.00;;;;;;5045803;28;20467;-79
2022/02/17 07:53:34;;;;;;;1.73;0.70;;;12.50;1.00;;;;;;5044518;28;20466;-77
2022/02/17 07:56:02;;;;;;;2.95;1.05;;;12.50;1.00;;;;;;5044431;28;20451;-77
2022/02/17 07:58:31;;;;;;;1.87;0.83;;;12.40;99.90;;;;;;5042221;28;20657;-77
2022/02/17 08:01:01;;;;;;;3.07;1.10;;;12.40;99.90;;;;;;5044861;28;20471;-78
2022/02/17 08:03:33;;;;;;;1.50;0.80;;;12.60;99.90;;;;;;5043490;28;20455;-78
2022/02/17 08:06:01;;;;;;;1.30;0.77;;;12.70;99.90;;;;;;5044763;28;20475;-78
2022/02/17 08:08:51;;;;;;;3.20;0.63;;;12.70;99.90;;;;;;5038691;28;20448;-77
2022/02/17 08:11:19;;;;;;;1.77;0.80;;;13.00;99.90;;;;;;5048036;28;20838;-77
2022/02/17 08:13:48;;;;;;;3.57;0.80;;;13.00;99.90;;;;;;5043115;28;21631;-77
2022/02/17 08:16:17;;;;;;;4.50;0.97;;;13.20;99.90;;;;;;5045461;28;20459;-77
2022/02/17 08:18:46;;;;;;;1.67;0.67;;;13.40;99.90;;;;;;5037496;28;20464;-77
2022/02/17 08:21:34;;;;;;;3.20;0.97;;;13.50;99.90;;;;;;5042166;28;20552;-78
2022/02/17 08:24:02;;;;;;;3.93;1.00;;;13.80;99.90;;;;;;5045162;28;20965;-78
2022/02/17 08:26:37;;;;;;;8.13;0.90;;;13.70;99.90;;;;;;5043262;28;20490;-78
2022/02/17 08:29:06;;;;;;;1.77;0.80;;;13.80;99.90;;;;;;5045909;28;20983;-78
2022/02/17 08:31:37;;;;;;;5.73;1.20;;;13.80;99.90;;;;;;5045485;28;20471;-77
2022/02/17 08:34:07;;;;;;;6.90;0.90;;;13.90;99.90;;;;;;5044679;28;21244;-79
2022/02/17 08:36:36;;;;;;;5.43;1.20;;;14.10;99.90;;;;;;5041106;28;20449;-78
2022/02/17 08:39:06;;;;;;;3.03;0.70;;;14.30;99.90;;;;;;5044398;28;20538;-78
2022/02/17 08:41:35;;;;;;;2.17;0.87;;;14.50;99.90;;;;;;5044464;28;20557;-78
2022/02/17 08:44:04;;;;;;;1.40;0.77;;;14.60;99.90;;;;;;5044589;28;20951;-78
2022/02/17 08:46:33;;;;;;;2.83;1.07;;;14.70;99.90;;;;;;5038553;28;20941;-78
2022/02/17 08:49:07;;;;;;;2.00;0.80;;;14.90;99.90;;;;;;5046554;28;20458;-78
2022/02/17 08:51:37;;;;;;;5.40;1.73;;;15.10;99.90;;;;;;5038453;28;20472;-78
2022/02/17 08:54:08;;;;;;;1.63;1.10;;;15.30;99.90;;;;;;5050182;28;20959;-78
2022/02/17 08:56:36;;;;;;;3.17;0.80;;;15.50;99.90;;;;;;5044668;28;20478;-78
2022/02/17 08:59:05;;;;;;;3.13;1.10;;;15.50;99.90;;;;;;5039422;28;20444;-78
2022/02/17 09:01:33;;;;;;;2.27;1.00;;;15.50;99.90;;;;;;5046812;28;20490;-79
2022/02/17 09:04:02;;;;;;;3.00;1.23;;;15.60;99.90;;;;;;5039535;28;20455;-79
2022/02/17 09:06:33;;;;;;;5.43;0.80;;;15.70;99.90;;;;;;5047526;28;20567;-78
2022/02/17 09:09:02;;;;;;;3.07;1.10;;;15.70;99.90;;;;;;5046782;28;20456;-79
2022/02/17 09:11:32;;;;;;;3.60;1.00;;;16.00;99.90;;;;;;5046929;28;20765;-78
2022/02/17 09:14:00;;;;;;;3.23;1.00;;;16.40;99.90;;;;;;5049379;28;21234;-78
2022/02/17 09:16:28;;;;;;;2.20;0.80;;;16.50;99.90;;;;;;5048221;28;20476;-78
2022/02/17 09:18:57;;;;;;;2.33;0.73;;;16.60;99.90;;;;;;5048968;28;20469;-78
2022/02/17 09:21:25;;;;;;;1.43;0.80;;;16.80;99.90;;;;;;5045955;28;20482;-79
2022/02/17 09:23:55;;;;;;;4.40;1.00;;;16.90;99.90;;;;;;5044280;28;20466;-78
2022/02/17 09:26:23;;;;;;;1.50;0.83;;;17.00;99.90;;;;;;5047733;28;20481;-78
2022/02/17 09:28:51;;;;;;;5.77;1.47;;;16.70;99.90;;;;;;5047862;28;20462;-78
2022/02/17 09:31:40;;;;;;;0.93;0.83;;;16.60;99.90;;;;;;5038278;28;20466;-78
2022/02/17 09:34:10;;;;;;;5.40;0.90;;;16.40;99.90;;;;;;5043546;28;20441;-79
2022/02/17 09:36:39;;;;;;;1.77;0.93;;;16.50;99.90;;;;;;5041571;28;20451;-79
2022/02/17 09:39:09;;;;;;;2.53;1.00;;;16.50;99.90;;;;;;5039517;28;20459;-78
2022/02/17 09:41:38;;;;;;;4.10;0.97;;;16.60;99.90;;;;;;5043425;28;20499;-77
2022/02/17 09:44:09;;;;;;;4.83;1.37;;;16.70;99.90;;;;;;5040597;28;20465;-78
2022/02/17 09:46:44;;;;;;;4.30;1.17;;;16.60;99.90;;;;;;5042220;28;20481;-78
2022/02/17 09:49:16;;;;;;;4.90;1.23;;;16.40;99.90;;;;;;5043285;28;20507;-78
2022/02/17 09:51:44;;;;;;;3.20;1.10;;;16.00;99.90;;;;;;5040073;28;20478;-78
2022/02/17 09:54:15;;;;;;;4.60;1.30;;;15.50;99.90;;;;;;5040959;28;20453;-78
2022/02/17 09:56:43;;;;;;;5.10;1.40;;;15.10;99.90;;;;;;5040189;28;20459;-77
2022/02/17 09:59:15;;;;;;;3.67;1.10;;;14.90;99.90;;;;;;5040201;28;20459;-78
2022/02/17 10:01:54;;;;;;;2.63;1.80;;;14.60;99.90;;;;;;5039740;28;21292;-77
2022/02/17 10:04:24;;;;;;;5.90;0.93;;;14.70;99.90;;;;;;5043159;28;20450;-78
2022/02/17 10:06:55;;;;;;;2.53;0.83;;;15.10;99.90;;;;;;5041100;28;20494;-78
2022/02/17 10:09:36;;;;;;;6.20;1.10;;;15.60;99.90;;;;;;5043550;28;20463;-78
2022/02/17 10:12:05;;;;;;;5.37;1.00;;;16.10;99.90;;;;;;5039802;28;20839;-78
2022/02/17 10:14:33;;;;;;;3.37;1.00;;;16.30;99.90;;;;;;5044173;28;20460;-78
2022/02/17 10:17:04;;;;;;;6.37;1.10;;;16.30;99.90;;;;;;5035371;28;20460;-78
2022/02/17 10:19:36;;;;;;;2.13;1.30;;;16.30;99.90;;;;;;5039263;28;20560;-78
2022/02/17 10:22:07;;;;;;;6.47;0.97;;;16.20;99.90;;;;;;5041523;28;20468;-78
2022/02/17 10:24:43;;;;;;;5.03;1.00;;;16.00;99.90;;;;;;5042622;28;20445;-78
2022/02/17 10:27:13;;;;;;;6.27;1.73;;;15.90;99.90;;;;;;5041355;28;21023;-78
2022/02/17 10:29:58;;;;;;;3.67;1.67;;;16.00;99.90;;;;;;5040627;28;20468;-77
2022/02/17 10:32:27;;;;;;;3.70;1.10;;;16.10;99.90;;;;;;5039017;28;20491;-78
2022/02/17 10:35:11;;;;;;;3.93;1.43;;;16.20;99.90;;;;;;5038059;28;20968;-78
2022/02/17 10:37:50;;;;;;;5.37;1.50;;;16.10;99.90;;;;;;5038687;28;20448;-79
2022/02/17 10:40:22;;;;;;;6.03;1.20;;;15.90;99.90;;;;;;5042476;28;20462;-78
2022/02/17 10:43:02;;;;;;;3.37;0.93;;;16.00;99.90;;;;;;5042398;28;20995;-78
2022/02/17 10:45:38;;;;;;;3.37;1.30;;;16.20;99.90;;;;;;5041437;28;21273;-79
2022/02/17 10:48:15;;;;;;;5.03;0.90;;;16.30;99.90;;;;;;5041251;28;20481;-79
2022/02/17 10:50:45;;;;;;;2.63;1.10;;;16.30;99.90;;;;;;5040306;28;20870;-78
2022/02/17 10:53:22;;;;;;;3.65;1.10;;;16.30;99.90;;;;;;5043882;28;20443;-78
2022/02/17 10:55:57;;;;;;;5.83;1.63;;;16.60;99.90;;;;;;5042937;28;20214;-78
2022/02/17 10:58:28;;;;;;;6.40;1.23;;;16.50;99.90;;;;;;5039135;28;20432;-78
2022/02/17 11:00:57;;;;;;;6.30;1.10;;;16.40;99.90;;;;;;5038251;28;20577;-78
2022/02/17 11:03:26;;;;;;;2.60;1.37;;;16.30;99.90;;;;;;5039618;28;20445;-78
2022/02/17 11:06:08;;;;;;;5.50;1.60;;;16.20;99.90;;;;;;5056127;28;20457;-78
2022/02/17 11:08:37;;;;;;;5.57;1.13;;;16.00;99.90;;;;;;5039869;28;20534;-78
2022/02/17 11:11:07;;;;;;;6.10;1.20;;;15.80;99.90;;;;;;5041164;28;20522;-78
2022/02/17 11:13:36;;;;;;;6.63;1.27;;;16.20;99.90;;;;;;5044495;28;20467;-79
2022/02/17 11:16:10;;;;;;;2.20;1.00;;;16.50;99.90;;;;;;5040394;28;20452;-78
2022/02/17 11:18:41;;;;;;;6.60;1.20;;;16.40;99.90;;;;;;5037201;28;20451;-78
2022/02/17 11:21:15;;;;;;;5.33;1.40;;;16.30;99.90;;;;;;5039121;28;20474;-78
2022/02/17 11:23:44;;;;;;;5.27;1.30;;;16.20;99.90;;;;;;5039537;28;20497;-78
2022/02/17 11:26:23;;;;;;;2.63;1.00;;;16.10;99.90;;;;;;5040899;28;20537;-77
2022/02/17 11:28:58;;;;;;;5.37;1.03;;;16.10;99.90;;;;;;5041098;28;20565;-78
2022/02/17 11:31:27;;;;;;;3.50;0.93;;;16.10;99.90;;;;;;5049270;28;20478;-78
2022/02/17 11:33:56;;;;;;;7.00;1.53;;;16.30;99.90;;;;;;5045185;28;20476;-78
2022/02/17 11:36:30;;;;;;;9.47;1.47;;;16.30;99.90;;;;;;5043887;28;20449;-78
2022/02/17 11:39:03;;;;;;;2.63;1.13;;;16.00;99.90;;;;;;5049270;28;20983;-78
2022/02/17 11:41:36;;;;;;;5.47;2.83;;;15.80;99.90;;;;;;5040826;28;20472;-78
2022/02/17 11:44:18;;;;;;;10.10;2.27;;;15.50;99.90;;;;;;5050785;28;20467;-78
2022/02/17 11:46:52;;;;;;;4.60;1.27;;;15.60;99.90;;;;;;5046328;28;20479;-78
2022/02/17 11:49:49;;;;;;;5.90;1.67;;;15.60;99.90;;;;;;5046845;28;20521;-78
2022/02/17 11:52:21;;;;;;;7.20;1.57;;;15.70;99.90;;;;;;5046068;28;20483;-78
2022/02/17 11:55:22;;;;;;;4.90;1.50;;;15.70;99.90;;;;;;5046035;28;20447;-78
2022/02/17 11:57:53;;;;;;;7.60;1.50;;;15.80;99.90;;;;;;5040433;28;21045;-78
2022/02/17 12:00:38;;;;;;;5.80;2.57;;;16.10;99.90;;;;;;5041885;28;20455;-78
2022/02/17 12:03:06;;;;;;;5.37;2.17;;;16.30;99.90;;;;;;5045433;28;20534;-77
2022/02/17 12:05:34;;;;;;;7.77;1.77;;;16.40;99.90;;;;;;5049493;28;20539;-77
2022/02/17 12:08:24;;;;;;;4.20;1.27;;;16.40;99.90;;;;;;5043733;28;20515;-77
2022/02/17 12:10:56;;;;;;;6.07;2.40;;;16.50;99.90;;;;;;5047033;28;20473;-77
2022/02/17 12:13:30;;;;;;;3.80;1.40;;;16.40;99.90;;;;;;5047250;28;20963;-77
2022/02/17 12:15:59;;;;;;;8.43;1.83;;;16.20;99.90;;;;;;5043953;28;20444;-78
2022/02/17 12:18:36;;;;;;;5.03;1.40;;;16.20;99.90;;;;;;5046952;28;20459;-78
2022/02/17 12:21:05;;;;;;;4.97;1.87;;;16.20;99.90;;;;;;5043689;28;20482;-78
2022/02/17 12:23:36;;;;;;;5.43;1.60;;;16.20;99.90;;;;;;5044016;28;20482;-77
2022/02/17 12:26:10;;;;;;;4.10;1.60;;;16.30;99.90;;;;;;5040758;28;20541;-77
2022/02/17 12:28:40;;;;;;;3.50;1.10;;;16.40;99.90;;;;;;5042707;28;20498;-77
2022/02/17 12:31:08;;;;;;;6.30;1.83;;;16.40;99.90;;;;;;5046203;28;20487;-77
2022/02/17 12:33:38;;;;;;;5.40;1.90;;;16.40;99.90;;;;;;5046959;28;20455;-78
2022/02/17 12:36:12;;;;;;;4.83;1.50;;;16.30;99.90;;;;;;5041887;28;20754;-78
2022/02/17 12:38:41;;;;;;;3.63;1.30;;;16.30;99.90;;;;;;5043484;28;20509;-77
2022/02/17 12:41:12;;;;;;;4.67;1.70;;;16.20;99.90;;;;;;5049300;28;20486;-77
2022/02/17 12:43:43;;;;;;;5.83;1.70;;;16.30;99.90;;;;;;5045470;28;21026;-77
2022/02/17 12:46:16;;;;;;;8.87;1.63;;;16.30;99.90;;;;;;5042121;28;20505;-77
2022/02/17 12:48:45;;;;;;;9.30;1.43;;;16.30;99.90;;;;;;5045365;28;20475;-77
2022/02/17 12:51:31;;;;;;;5.57;1.50;;;16.30;99.90;;;;;;5040630;28;20482;-77
2022/02/17 12:54:08;;;;;;;5.90;1.63;;;16.30;99.90;;;;;;5044591;28;20459;-77
2022/02/17 12:56:40;;;;;;;9.90;1.50;;;16.40;99.90;;;;;;5041132;28;20456;-77
2022/02/17 12:59:12;;;;;;;7.07;2.40;;;16.40;99.90;;;;;;5041335;28;20482;-77
2022/02/17 13:01:42;;;;;;;4.33;1.23;;;16.50;99.90;;;;;;5042625;28;20479;-76
2022/02/17 13:04:11;;;;;;;4.23;1.43;;;16.50;99.90;;;;;;5043703;28;20463;-78
2022/02/17 13:06:39;;;;;;;5.23;1.43;;;16.50;99.90;;;;;;5043624;28;20453;-79
2022/02/17 13:09:16;;;;;;;2.97;1.30;;;16.60;99.90;;;;;;5039894;28;20480;-79
2022/02/17 13:11:51;;;;;;;7.27;1.67;;;16.70;99.90;;;;;;5043159;28;20471;-79